x

Tanner Bank - 121nm West Of San Diego, Ca (46047) Wave Buoy

8:50 - Fri 19th Sep 2014 All times are PDT. -7 hours from GMT.

  • Sig Wave height 6.2ft
  • Swell Direction
  • Peak Period 13s
  • Average Period 8s
  • Wind
    11mph, 16mph gusts
  • Sea Temp 70°f
  • Air Temp 67°f
  • Sea Pressure 1013.2mb
  • Tanner Bank - 121nm West Of San Diego, Ca
  • Tanner Bank - 121nm West Of San Diego, Ca

More Historic Weather Station data

Upgrade to MSW Pro to gain access to the past 30 days of data for over 8000 Wavebouys and Weather Stations around the globe.

Join Pro

Comparision Forecast

View Surf forecast
   
ven. 09/19 8:50 6ft 13s 8s 11 16 mph 1013.2mb 70f 67f
7:50 6ft 14s 8s 11 16 mph 1013.1mb 70f 67f
6:50 6ft 13s 8s 13 16 mph 1012.7mb 70f 67f
5:50 6ft 15s 8s 13 16 mph 1012.4mb 70f 67f
4:50 6ft 12s 8s 11 13 mph 1012.2mb 70f 67f
3:50 6ft 12s 7s 13 16 mph 1012.2mb 70f 67f
2:50 6.5ft 16s 8s 13 16 mph 1012.6mb 70f 68f
1:50 6ft 15s 8s 13 18 mph 1012.6mb 70f 68f
12:50 6ft 15s 7s 16 20 mph 1012.3mb 70f 68f
jeu. 09/18 11:50 7ft 13s 8s 16 18 mph 1011.9mb 70f 68f
10:50 6.5ft 15s 8s 16 18 mph 1012mb 70f 68f
9:50 6.5ft 15s 8s 18 20 mph 1011.9mb 70f 68f
8:50 6ft 15s 8s 16 18 mph 1011.8mb 70f 68f
7:50 6.5ft 16s 9s 16 18 mph 1011.1mb 70f 69f
6:50 6ft 13s 9s 11 13 mph 1010.9mb 71f 69f
5:50 6.5ft 16s 9s 11 13 mph 1010.9mb 71f 70f
4:50 7ft 13s 9s 9 11 mph 1011.1mb 71f 69f
3:50 7ft 14s 9s 9 11 mph 1011.3mb 71f 69f
2:50 6ft 16s 9s 11 13 mph 1011.6mb 70f 69f
1:50 6.5ft 16s 8s 9 11 mph 1012.2mb 70f 68f
12:50  -   -   -  11 13 mph 1012.6mb 70f 69f
11:50 6.5ft 16s 8s 9 11 mph 1012.9mb 70f 69f
10:50 7ft 16s 8s 11 13 mph 1013.1mb 70f 69f
9:50 6.5ft 16s 8s 11 13 mph 1013mb 70f 70f
8:50 7ft 16s 7s 13 16 mph 1012.7mb 70f 69f
7:50 6ft 16s 7s 18 22 mph 1012mb 70f 68f
6:50 6.5ft 16s 7s 16 20 mph 1011.4mb 70f 67f
5:50 7ft 17s 7s 16 20 mph 1010.9mb 70f 67f
4:50 6.5ft 14s 7s 18 22 mph 1010.6mb 70f 67f
3:50 6.5ft 16s 6s 20 25 mph 1010.4mb 70f 67f
2:50 7ft 16s 7s 20 22 mph 1010.6mb 70f 68f
1:50 6ft 16s 6s 22 27 mph 1010.3mb 70f 68f
12:50 5.5ft 16s 6s 20 25 mph 1010.1mb 70f 68f
mer. 09/17 11:50 6ft 16s 6s 20 25 mph 1010mb 70f 68f
10:50 7.5ft 17s 7s 20 25 mph 1010.1mb 70f 68f
9:50 6ft 16s 6s 22 27 mph 1009.8mb 70f 68f
8:50 7ft 17s 6s 22 29 mph 1009.5mb 70f 68f
7:50 7ft 17s 6s 22 27 mph 1009mb 70f 68f
6:50 7ft 16s 6s 22 29 mph 1008.8mb 70f 68f
5:50 6ft 17s 6s 22 27 mph 1008.5mb 70f 68f
4:50 6.5ft 17s 5s 22 25 mph 1008.4mb 70f 68f
3:50 7ft 17s 6s 20 25 mph 1008.8mb 70f 68f
2:50 7ft 17s 6s 25 29 mph 1008.9mb 70f 68f
1:50 6ft 17s 6s 22 27 mph 1009.2mb 70f 67f
12:50 6ft 17s 6s 22 25 mph 1009.8mb 70f 68f
11:50 7ft 17s 6s 22 27 mph 1009.8mb 70f 68f
10:50  -   -   -  22 27 mph 1009.5mb 70f 68f
9:50 6ft 16s 6s 20 22 mph 1009.2mb 70f 68f
8:50 6.5ft 17s 6s 20 22 mph 1008.6mb 70f 69f
7:50 7.5ft 17s 7s 18 22 mph 1008.1mb 70f 69f
6:50 7.5ft 17s 6s 20 22 mph 1007.5mb 70f 68f
5:50 7ft 17s 6s 18 22 mph 1007.4mb 70f 68f
4:50 7ft 17s 6s 20 22 mph 1007.1mb 70f 68f
3:50  -   -   -  18 20 mph 1007.4mb 70f 68f
2:50 7.5ft 19s 6s 18 20 mph 1007.7mb 70f 68f
1:50 8ft 17s 6s 20 25 mph 1007.6mb 70f 68f
12:50 9ft 19s 6s 22 27 mph 1007.6mb 69f 68f
mar. 09/16 11:50 7.5ft 17s 6s 22 27 mph 1007.7mb 70f 68f
10:50 8ft 17s 6s 25 27 mph 1007.5mb 70f 68f
9:50 8ft 19s 6s 25 29 mph 1007.5mb 70f 68f
8:50 8ft 7s 6s 25 31 mph 1007.3mb 70f 69f
7:50 8ft 19s 6s 25 29 mph 1006.9mb 70f 69f
6:50 8ft 7s 6s 25 31 mph 1006.7mb 70f 69f
5:50 7.5ft 7s 6s 22 29 mph 1006.6mb 70f 69f
4:50 8ft 19s 6s 22 27 mph 1006.3mb 70f 69f
3:50  -   -   -  20 25 mph 1007mb 70f 69f
2:50 7.5ft 19s 6s 20 25 mph 1007.5mb 70f 68f
1:50 7ft 19s 6s 20 25 mph 1008.3mb 70f 68f
12:50 7ft 19s 6s 22 27 mph 1008.8mb 70f 68f
11:50 7ft 19s 6s 22 27 mph 1008.9mb 70f 68f
10:50 7ft 19s 6s 22 27 mph 1009mb 70f 68f
9:50 7.5ft 19s 6s 22 27 mph 1009.2mb 70f 69f
8:50 7ft 19s 6s 20 25 mph 1009mb 70f 69f
7:50 7.5ft 7s 6s 22 25 mph 1008.9mb 70f 69f
6:50 7.5ft 19s 6s 25 29 mph 1008.5mb 70f 69f
5:50 7ft 7s 6s 25 29 mph 1008mb 70f 69f
4:50 7.5ft 19s 6s 25 29 mph 1007.9mb 70f 69f
3:50 6.5ft 19s 6s 22 27 mph 1008.3mb 69f 69f
2:50 6.5ft 21s 6s 22 27 mph 1008.7mb 69f 69f
1:50 7ft 6s 6s 22 25 mph 1009.2mb 69f 69f
12:50 7ft 19s 6s 20 27 mph 1009.5mb 69f 69f
lun. 09/15 11:50 7ft 21s 6s 22 25 mph 1009.7mb 69f 69f
10:50 7ft 6s 6s 22 27 mph 1009.8mb 69f 69f
9:50 7ft 21s 6s 25 31 mph 1009.2mb 69f 69f
8:50 7ft 7s 5s 25 31 mph 1009mb 70f 69f
7:50 6ft 5s 5s 25 31 mph 1008.3mb 70f 69f
6:50 6ft 6s 5s 22 29 mph 1008.5mb 70f 69f
5:50 6ft 21s 5s 22 27 mph 1008.5mb 70f 69f
4:50 6ft 21s 6s 20 27 mph 1008.7mb 70f 69f